sensor_id;sensor_type;location;lat;lon;timestamp;P1;durP1;ratioP1;P2;durP2;ratioP2
73454;SDS011;61690;51.824;6.306;2022-08-11T00:01:55;4.50;;;2.30;;
73454;SDS011;61690;51.824;6.306;2022-08-11T00:04:23;4.30;;;1.90;;
73454;SDS011;61690;51.824;6.306;2022-08-11T00:06:50;4.45;;;2.03;;
73454;SDS011;61690;51.824;6.306;2022-08-11T00:09:21;4.80;;;2.20;;
73454;SDS011;61690;51.824;6.306;2022-08-11T00:11:55;4.18;;;1.60;;
73454;SDS011;61690;51.824;6.306;2022-08-11T00:14:25;4.47;;;2.33;;
73454;SDS011;61690;51.824;6.306;2022-08-11T00:19:32;3.90;;;1.80;;
73454;SDS011;61690;51.824;6.306;2022-08-11T00:22:01;4.50;;;2.20;;
73454;SDS011;61690;51.824;6.306;2022-08-11T00:24:31;4.20;;;2.15;;
73454;SDS011;61690;51.824;6.306;2022-08-11T00:26:57;4.43;;;2.10;;
73454;SDS011;61690;51.824;6.306;2022-08-11T00:29:23;4.40;;;2.00;;
73454;SDS011;61690;51.824;6.306;2022-08-11T00:31:52;3.77;;;1.93;;
73454;SDS011;61690;51.824;6.306;2022-08-11T00:34:21;4.53;;;2.10;;
73454;SDS011;61690;51.824;6.306;2022-08-11T00:39:21;4.17;;;1.87;;
73454;SDS011;61690;51.824;6.306;2022-08-11T00:53:11;4.00;;;2.20;;
73454;SDS011;61690;51.824;6.306;2022-08-11T01:07:23;4.63;;;2.00;;
73454;SDS011;61690;51.824;6.306;2022-08-11T01:13:51;4.15;;;2.10;;
73454;SDS011;61690;51.824;6.306;2022-08-11T01:25:15;4.20;;;1.83;;
73454;SDS011;61690;51.824;6.306;2022-08-11T01:31:06;4.45;;;2.10;;
73454;SDS011;61690;51.824;6.306;2022-08-11T01:34:38;4.65;;;2.08;;
73454;SDS011;61690;51.824;6.306;2022-08-11T01:46:03;3.88;;;1.92;;
73454;SDS011;61690;51.824;6.306;2022-08-11T01:54:30;4.32;;;2.13;;
73454;SDS011;61690;51.824;6.306;2022-08-11T01:59:46;4.43;;;1.92;;
73454;SDS011;61690;51.824;6.306;2022-08-11T02:08:09;4.43;;;1.90;;
73454;SDS011;61690;51.824;6.306;2022-08-11T02:23:25;4.20;;;2.13;;
73454;SDS011;61690;51.824;6.306;2022-08-11T02:42:22;4.05;;;2.13;;
73454;SDS011;61690;51.824;6.306;2022-08-11T02:47:49;4.40;;;2.20;;
73454;SDS011;61690;51.824;6.306;2022-08-11T02:53:59;4.35;;;1.90;;
73454;SDS011;61690;51.824;6.306;2022-08-11T02:56:56;3.90;;;1.92;;
73454;SDS011;61690;51.824;6.306;2022-08-11T03:05:11;4.38;;;1.70;;
73454;SDS011;61690;51.824;6.306;2022-08-11T03:10:59;4.47;;;1.67;;
73454;SDS011;61690;51.824;6.306;2022-08-11T03:17:23;3.70;;;1.70;;
73454;SDS011;61690;51.824;6.306;2022-08-11T03:25:18;4.10;;;1.90;;
73454;SDS011;61690;51.824;6.306;2022-08-11T03:31:06;4.67;;;2.00;;
73454;SDS011;61690;51.824;6.306;2022-08-11T03:34:00;4.00;;;1.80;;
73454;SDS011;61690;51.824;6.306;2022-08-11T03:39:09;4.07;;;1.80;;
73454;SDS011;61690;51.824;6.306;2022-08-11T03:53:34;3.80;;;1.80;;
73454;SDS011;61690;51.824;6.306;2022-08-11T03:56:05;3.83;;;2.00;;
73454;SDS011;61690;51.824;6.306;2022-08-11T04:10:06;4.40;;;1.70;;
73454;SDS011;61690;51.824;6.306;2022-08-11T04:21:50;4.18;;;1.80;;
73454;SDS011;61690;51.824;6.306;2022-08-11T04:27:26;3.90;;;1.90;;
73454;SDS011;61690;51.824;6.306;2022-08-11T04:48:05;6.80;;;4.30;;
73454;SDS011;61690;51.824;6.306;2022-08-11T04:51:20;7.78;;;4.30;;
73454;SDS011;61690;51.824;6.306;2022-08-11T04:54:22;6.53;;;3.88;;
73454;SDS011;61690;51.824;6.306;2022-08-11T04:57:10;8.40;;;3.77;;
73454;SDS011;61690;51.824;6.306;2022-08-11T05:00:06;7.75;;;3.95;;
73454;SDS011;61690;51.824;6.306;2022-08-11T05:17:10;8.05;;;4.05;;
73454;SDS011;61690;51.824;6.306;2022-08-11T05:19:58;7.22;;;3.90;;
73454;SDS011;61690;51.824;6.306;2022-08-11T05:22:44;8.32;;;4.50;;
73454;SDS011;61690;51.824;6.306;2022-08-11T05:25:33;9.20;;;3.97;;
73454;SDS011;61690;51.824;6.306;2022-08-11T05:28:28;10.52;;;3.90;;
73454;SDS011;61690;51.824;6.306;2022-08-11T05:31:15;9.32;;;4.15;;
73454;SDS011;61690;51.824;6.306;2022-08-11T05:36:53;11.02;;;4.00;;
73454;SDS011;61690;51.824;6.306;2022-08-11T05:39:27;11.43;;;4.07;;
73454;SDS011;61690;51.824;6.306;2022-08-11T05:42:15;8.52;;;4.20;;
73454;SDS011;61690;51.824;6.306;2022-08-11T05:45:04;11.63;;;4.40;;
73454;SDS011;61690;51.824;6.306;2022-08-11T05:47:55;9.18;;;4.30;;
73454;SDS011;61690;51.824;6.306;2022-08-11T05:50:40;8.40;;;4.22;;
73454;SDS011;61690;51.824;6.306;2022-08-11T05:53:25;11.00;;;4.10;;
73454;SDS011;61690;51.824;6.306;2022-08-11T05:56:10;11.75;;;3.95;;
73454;SDS011;61690;51.824;6.306;2022-08-11T05:58:44;6.70;;;4.10;;
73454;SDS011;61690;51.824;6.306;2022-08-11T06:01:19;7.57;;;4.00;;
73454;SDS011;61690;51.824;6.306;2022-08-11T06:03:49;10.48;;;4.68;;
73454;SDS011;61690;51.824;6.306;2022-08-11T06:06:34;8.33;;;4.33;;
73454;SDS011;61690;51.824;6.306;2022-08-11T06:09:01;8.10;;;4.45;;
73454;SDS011;61690;51.824;6.306;2022-08-11T06:11:26;9.35;;;4.20;;
73454;SDS011;61690;51.824;6.306;2022-08-11T06:13:53;11.98;;;4.53;;
73454;SDS011;61690;51.824;6.306;2022-08-11T06:16:22;10.57;;;4.10;;
73454;SDS011;61690;51.824;6.306;2022-08-11T06:18:52;12.25;;;4.03;;
73454;SDS011;61690;51.824;6.306;2022-08-11T06:21:17;10.70;;;4.00;;
73454;SDS011;61690;51.824;6.306;2022-08-11T06:23:44;11.82;;;3.95;;
73454;SDS011;61690;51.824;6.306;2022-08-11T06:26:12;9.07;;;4.10;;
73454;SDS011;61690;51.824;6.306;2022-08-11T06:28:38;11.25;;;3.83;;
73454;SDS011;61690;51.824;6.306;2022-08-11T06:31:18;11.45;;;3.80;;
73454;SDS011;61690;51.824;6.306;2022-08-11T06:36:54;9.95;;;4.10;;
73454;SDS011;61690;51.824;6.306;2022-08-11T06:39:38;8.63;;;4.30;;
73454;SDS011;61690;51.824;6.306;2022-08-11T06:42:57;10.55;;;4.00;;
73454;SDS011;61690;51.824;6.306;2022-08-11T06:47:55;10.68;;;3.75;;
73454;SDS011;61690;51.824;6.306;2022-08-11T06:50:24;10.20;;;3.70;;
73454;SDS011;61690;51.824;6.306;2022-08-11T06:53:09;7.03;;;3.83;;
73454;SDS011;61690;51.824;6.306;2022-08-11T06:55:38;7.95;;;3.15;;
73454;SDS011;61690;51.824;6.306;2022-08-11T06:58:31;6.00;;;3.20;;
73454;SDS011;61690;51.824;6.306;2022-08-11T07:01:39;9.90;;;3.50;;
73454;SDS011;61690;51.824;6.306;2022-08-11T07:04:16;8.50;;;3.83;;
73454;SDS011;61690;51.824;6.306;2022-08-11T07:10:22;8.15;;;3.35;;
73454;SDS011;61690;51.824;6.306;2022-08-11T07:13:07;6.47;;;3.45;;
73454;SDS011;61690;51.824;6.306;2022-08-11T07:15:56;11.25;;;3.47;;
73454;SDS011;61690;51.824;6.306;2022-08-11T07:18:24;7.13;;;3.33;;
73454;SDS011;61690;51.824;6.306;2022-08-11T07:24:11;5.88;;;3.20;;
73454;SDS011;61690;51.824;6.306;2022-08-11T07:26:58;6.32;;;3.38;;
73454;SDS011;61690;51.824;6.306;2022-08-11T07:29:44;9.10;;;3.38;;
73454;SDS011;61690;51.824;6.306;2022-08-11T07:32:14;7.10;;;3.30;;
73454;SDS011;61690;51.824;6.306;2022-08-11T07:34:49;7.70;;;3.37;;
73454;SDS011;61690;51.824;6.306;2022-08-11T07:37:20;7.53;;;3.20;;
73454;SDS011;61690;51.824;6.306;2022-08-11T07:39:47;8.00;;;3.22;;
73454;SDS011;61690;51.824;6.306;2022-08-11T07:42:14;6.28;;;3.17;;
73454;SDS011;61690;51.824;6.306;2022-08-11T07:44:44;6.78;;;2.90;;
73454;SDS011;61690;51.824;6.306;2022-08-11T07:47:30;6.63;;;3.10;;
73454;SDS011;61690;51.824;6.306;2022-08-11T07:50:17;5.63;;;3.03;;
73454;SDS011;61690;51.824;6.306;2022-08-11T07:53:01;5.97;;;3.30;;
73454;SDS011;61690;51.824;6.306;2022-08-11T07:55:28;6.75;;;3.00;;
73454;SDS011;61690;51.824;6.306;2022-08-11T07:57:55;8.48;;;3.50;;
73454;SDS011;61690;51.824;6.306;2022-08-11T08:00:46;5.90;;;2.90;;
73454;SDS011;61690;51.824;6.306;2022-08-11T08:03:32;5.88;;;3.33;;
73454;SDS011;61690;51.824;6.306;2022-08-11T08:06:17;8.40;;;3.10;;
73454;SDS011;61690;51.824;6.306;2022-08-11T08:09:02;6.28;;;3.28;;
73454;SDS011;61690;51.824;6.306;2022-08-11T08:11:47;5.78;;;2.97;;
73454;SDS011;61690;51.824;6.306;2022-08-11T08:14:31;6.47;;;3.00;;
73454;SDS011;61690;51.824;6.306;2022-08-11T08:17:17;6.70;;;3.05;;
73454;SDS011;61690;51.824;6.306;2022-08-11T08:20:02;6.93;;;3.22;;
73454;SDS011;61690;51.824;6.306;2022-08-11T08:22:31;6.30;;;3.00;;
73454;SDS011;61690;51.824;6.306;2022-08-11T08:24:57;6.17;;;2.93;;
73454;SDS011;61690;51.824;6.306;2022-08-11T08:27:23;5.57;;;3.00;;
73454;SDS011;61690;51.824;6.306;2022-08-11T08:29:50;5.35;;;3.00;;
73454;SDS011;61690;51.824;6.306;2022-08-11T08:32:50;5.13;;;2.80;;
73454;SDS011;61690;51.824;6.306;2022-08-11T08:35:17;5.18;;;2.95;;
73454;SDS011;61690;51.824;6.306;2022-08-11T08:37:43;8.13;;;3.47;;
73454;SDS011;61690;51.824;6.306;2022-08-11T08:40:09;5.53;;;2.87;;
73454;SDS011;61690;51.824;6.306;2022-08-11T08:42:38;5.50;;;3.20;;
73454;SDS011;61690;51.824;6.306;2022-08-11T08:45:10;5.20;;;2.90;;
73454;SDS011;61690;51.824;6.306;2022-08-11T08:48:01;5.85;;;2.80;;
73454;SDS011;61690;51.824;6.306;2022-08-11T08:50:32;7.30;;;2.97;;
73454;SDS011;61690;51.824;6.306;2022-08-11T08:53:22;6.47;;;2.90;;
73454;SDS011;61690;51.824;6.306;2022-08-11T08:55:53;6.97;;;3.00;;
73454;SDS011;61690;51.824;6.306;2022-08-11T08:58:22;6.47;;;2.60;;
73454;SDS011;61690;51.824;6.306;2022-08-11T09:00:49;6.80;;;2.95;;
73454;SDS011;61690;51.824;6.306;2022-08-11T09:03:16;6.13;;;3.00;;
73454;SDS011;61690;51.824;6.306;2022-08-11T09:05:43;7.10;;;2.90;;
73454;SDS011;61690;51.824;6.306;2022-08-11T09:08:10;5.53;;;2.78;;
73454;SDS011;61690;51.824;6.306;2022-08-11T09:10:36;7.97;;;2.80;;
73454;SDS011;61690;51.824;6.306;2022-08-11T09:13:03;5.60;;;2.70;;
73454;SDS011;61690;51.824;6.306;2022-08-11T09:15:30;6.05;;;2.95;;
73454;SDS011;61690;51.824;6.306;2022-08-11T09:17:58;5.47;;;2.90;;
73454;SDS011;61690;51.824;6.306;2022-08-11T09:20:34;5.20;;;2.80;;
73454;SDS011;61690;51.824;6.306;2022-08-11T09:23:04;7.10;;;2.97;;
73454;SDS011;61690;51.824;6.306;2022-08-11T09:25:52;6.82;;;2.80;;
73454;SDS011;61690;51.824;6.306;2022-08-11T09:28:40;7.25;;;3.10;;
73454;SDS011;61690;51.824;6.306;2022-08-11T09:31:08;7.43;;;3.08;;
73454;SDS011;61690;51.824;6.306;2022-08-11T09:33:37;6.20;;;2.97;;
73454;SDS011;61690;51.824;6.306;2022-08-11T09:36:04;6.40;;;3.10;;
73454;SDS011;61690;51.824;6.306;2022-08-11T09:38:50;5.88;;;3.00;;
73454;SDS011;61690;51.824;6.306;2022-08-11T09:41:35;4.95;;;2.80;;
73454;SDS011;61690;51.824;6.306;2022-08-11T09:44:01;5.28;;;3.00;;
73454;SDS011;61690;51.824;6.306;2022-08-11T09:46:46;6.33;;;3.13;;
73454;SDS011;61690;51.824;6.306;2022-08-11T09:49:14;5.97;;;2.97;;
73454;SDS011;61690;51.824;6.306;2022-08-11T09:51:44;5.20;;;2.83;;
73454;SDS011;61690;51.824;6.306;2022-08-11T09:54:12;6.15;;;3.00;;
73454;SDS011;61690;51.824;6.306;2022-08-11T09:56:37;6.00;;;2.97;;
73454;SDS011;61690;51.824;6.306;2022-08-11T09:59:21;5.47;;;2.90;;
73454;SDS011;61690;51.824;6.306;2022-08-11T10:01:51;6.03;;;3.00;;
73454;SDS011;61690;51.824;6.306;2022-08-11T10:04:25;6.47;;;2.90;;
73454;SDS011;61690;51.824;6.306;2022-08-11T10:06:58;5.57;;;2.92;;
73454;SDS011;61690;51.824;6.306;2022-08-11T10:09:27;4.53;;;2.63;;
73454;SDS011;61690;51.824;6.306;2022-08-11T10:11:58;5.85;;;2.30;;
73454;SDS011;61690;51.824;6.306;2022-08-11T10:14:27;4.95;;;2.70;;
73454;SDS011;61690;51.824;6.306;2022-08-11T10:17:13;5.93;;;2.40;;
73454;SDS011;61690;51.824;6.306;2022-08-11T10:19:42;4.85;;;2.58;;
73454;SDS011;61690;51.824;6.306;2022-08-11T10:22:10;6.25;;;2.90;;
73454;SDS011;61690;51.824;6.306;2022-08-11T10:24:58;5.38;;;2.58;;
73454;SDS011;61690;51.824;6.306;2022-08-11T10:27:44;5.25;;;2.80;;
73454;SDS011;61690;51.824;6.306;2022-08-11T10:30:10;5.23;;;2.70;;
73454;SDS011;61690;51.824;6.306;2022-08-11T10:32:58;5.15;;;2.58;;
73454;SDS011;61690;51.824;6.306;2022-08-11T10:35:43;5.78;;;2.90;;
73454;SDS011;61690;51.824;6.306;2022-08-11T10:38:09;5.57;;;2.90;;
73454;SDS011;61690;51.824;6.306;2022-08-11T10:40:38;5.40;;;2.90;;
73454;SDS011;61690;51.824;6.306;2022-08-11T10:43:05;5.17;;;2.87;;
73454;SDS011;61690;51.824;6.306;2022-08-11T10:45:36;6.57;;;2.72;;
73454;SDS011;61690;51.824;6.306;2022-08-11T10:48:21;5.03;;;3.13;;
73454;SDS011;61690;51.824;6.306;2022-08-11T10:50:49;5.50;;;2.75;;
73454;SDS011;61690;51.824;6.306;2022-08-11T10:53:40;5.75;;;2.78;;
73454;SDS011;61690;51.824;6.306;2022-08-11T10:56:27;5.23;;;2.70;;
73454;SDS011;61690;51.824;6.306;2022-08-11T10:59:13;8.32;;;2.78;;
73454;SDS011;61690;51.824;6.306;2022-08-11T11:01:40;6.35;;;2.85;;
73454;SDS011;61690;51.824;6.306;2022-08-11T11:09:38;5.20;;;2.50;;
73454;SDS011;61690;51.824;6.306;2022-08-11T11:12:10;5.18;;;2.70;;
73454;SDS011;61690;51.824;6.306;2022-08-11T11:14:56;5.35;;;2.80;;
73454;SDS011;61690;51.824;6.306;2022-08-11T11:17:46;5.20;;;2.72;;
73454;SDS011;61690;51.824;6.306;2022-08-11T11:20:38;6.63;;;2.90;;
73454;SDS011;61690;51.824;6.306;2022-08-11T11:36:54;4.70;;;2.85;;
73454;SDS011;61690;51.824;6.306;2022-08-11T11:39:23;7.10;;;2.90;;
73454;SDS011;61690;51.824;6.306;2022-08-11T11:41:52;4.60;;;2.70;;
73454;SDS011;61690;51.824;6.306;2022-08-11T11:44:20;5.45;;;2.95;;
73454;SDS011;61690;51.824;6.306;2022-08-11T11:46:47;5.93;;;2.60;;
73454;SDS011;61690;51.824;6.306;2022-08-11T11:49:13;5.43;;;2.70;;
73454;SDS011;61690;51.824;6.306;2022-08-11T11:51:42;5.88;;;2.58;;
73454;SDS011;61690;51.824;6.306;2022-08-11T11:54:09;4.53;;;2.80;;
73454;SDS011;61690;51.824;6.306;2022-08-11T11:56:38;6.15;;;2.80;;
73454;SDS011;61690;51.824;6.306;2022-08-11T11:59:03;7.00;;;2.80;;
73454;SDS011;61690;51.824;6.306;2022-08-11T12:01:48;4.67;;;2.70;;
73454;SDS011;61690;51.824;6.306;2022-08-11T12:04:14;4.97;;;2.90;;
73454;SDS011;61690;51.824;6.306;2022-08-11T12:06:42;4.95;;;2.70;;
73454;SDS011;61690;51.824;6.306;2022-08-11T12:09:08;5.32;;;2.60;;
73454;SDS011;61690;51.824;6.306;2022-08-11T12:11:39;5.43;;;2.53;;
73454;SDS011;61690;51.824;6.306;2022-08-11T12:14:23;5.83;;;2.53;;
73454;SDS011;61690;51.824;6.306;2022-08-11T12:16:52;5.97;;;2.70;;
73454;SDS011;61690;51.824;6.306;2022-08-11T12:19:22;5.78;;;2.80;;
73454;SDS011;61690;51.824;6.306;2022-08-11T12:21:49;6.10;;;2.70;;
73454;SDS011;61690;51.824;6.306;2022-08-11T12:24:34;7.78;;;2.90;;
73454;SDS011;61690;51.824;6.306;2022-08-11T12:27:20;5.13;;;2.70;;
73454;SDS011;61690;51.824;6.306;2022-08-11T12:29:49;6.10;;;2.95;;
73454;SDS011;61690;51.824;6.306;2022-08-11T12:32:17;6.75;;;2.90;;
73454;SDS011;61690;51.824;6.306;2022-08-11T12:34:44;6.40;;;2.65;;
73454;SDS011;61690;51.824;6.306;2022-08-11T12:37:10;6.63;;;2.77;;
73454;SDS011;61690;51.824;6.306;2022-08-11T12:39:38;6.03;;;2.70;;
73454;SDS011;61690;51.824;6.306;2022-08-11T12:42:27;6.35;;;2.70;;
73454;SDS011;61690;51.824;6.306;2022-08-11T12:45:15;5.93;;;2.60;;
73454;SDS011;61690;51.824;6.306;2022-08-11T12:48:11;4.97;;;2.30;;
73454;SDS011;61690;51.824;6.306;2022-08-11T12:51:01;6.20;;;2.35;;
73454;SDS011;61690;51.824;6.306;2022-08-11T12:53:57;5.88;;;2.58;;
73454;SDS011;61690;51.824;6.306;2022-08-11T12:56:31;5.88;;;2.50;;
73454;SDS011;61690;51.824;6.306;2022-08-11T12:59:21;4.75;;;2.70;;
73454;SDS011;61690;51.824;6.306;2022-08-11T13:02:07;5.80;;;2.50;;
73454;SDS011;61690;51.824;6.306;2022-08-11T13:04:54;5.95;;;2.63;;
73454;SDS011;61690;51.824;6.306;2022-08-11T13:07:23;6.88;;;2.78;;
73454;SDS011;61690;51.824;6.306;2022-08-11T13:09:50;7.00;;;2.40;;
73454;SDS011;61690;51.824;6.306;2022-08-11T13:12:17;4.57;;;2.70;;
73454;SDS011;61690;51.824;6.306;2022-08-11T13:15:02;6.23;;;2.60;;
73454;SDS011;61690;51.824;6.306;2022-08-11T13:17:28;5.35;;;2.40;;
73454;SDS011;61690;51.824;6.306;2022-08-11T13:19:56;5.65;;;2.67;;
73454;SDS011;61690;51.824;6.306;2022-08-11T13:22:22;5.80;;;2.75;;
73454;SDS011;61690;51.824;6.306;2022-08-11T13:24:50;6.00;;;2.58;;
73454;SDS011;61690;51.824;6.306;2022-08-11T13:27:19;6.60;;;2.50;;
73454;SDS011;61690;51.824;6.306;2022-08-11T13:29:46;8.25;;;2.42;;
73454;SDS011;61690;51.824;6.306;2022-08-11T13:32:14;7.00;;;2.30;;
73454;SDS011;61690;51.824;6.306;2022-08-11T13:34:41;5.95;;;2.25;;
73454;SDS011;61690;51.824;6.306;2022-08-11T13:37:08;6.35;;;2.70;;
73454;SDS011;61690;51.824;6.306;2022-08-11T13:39:36;7.30;;;2.20;;
73454;SDS011;61690;51.824;6.306;2022-08-11T13:42:11;8.32;;;2.30;;
73454;SDS011;61690;51.824;6.306;2022-08-11T13:44:39;5.35;;;2.30;;
73454;SDS011;61690;51.824;6.306;2022-08-11T13:47:06;7.57;;;2.72;;
73454;SDS011;61690;51.824;6.306;2022-08-11T13:49:36;5.65;;;2.40;;
73454;SDS011;61690;51.824;6.306;2022-08-11T13:52:03;6.23;;;2.40;;
73454;SDS011;61690;51.824;6.306;2022-08-11T13:54:31;5.15;;;2.40;;
73454;SDS011;61690;51.824;6.306;2022-08-11T13:57:02;6.68;;;2.85;;
73454;SDS011;61690;51.824;6.306;2022-08-11T13:59:30;4.60;;;2.20;;
73454;SDS011;61690;51.824;6.306;2022-08-11T14:02:00;6.10;;;2.50;;
73454;SDS011;61690;51.824;6.306;2022-08-11T14:04:33;5.53;;;2.50;;
73454;SDS011;61690;51.824;6.306;2022-08-11T14:07:08;7.22;;;2.35;;
73454;SDS011;61690;51.824;6.306;2022-08-11T14:09:38;4.63;;;2.58;;
73454;SDS011;61690;51.824;6.306;2022-08-11T14:12:07;5.40;;;2.90;;
73454;SDS011;61690;51.824;6.306;2022-08-11T14:15:00;5.95;;;2.60;;
73454;SDS011;61690;51.824;6.306;2022-08-11T14:17:31;5.70;;;2.87;;
73454;SDS011;61690;51.824;6.306;2022-08-11T14:20:00;5.25;;;2.40;;
73454;SDS011;61690;51.824;6.306;2022-08-11T14:22:30;5.53;;;2.60;;
73454;SDS011;61690;51.824;6.306;2022-08-11T14:24:57;5.68;;;2.25;;
73454;SDS011;61690;51.824;6.306;2022-08-11T14:27:22;6.83;;;2.60;;
73454;SDS011;61690;51.824;6.306;2022-08-11T14:29:55;6.53;;;2.75;;
73454;SDS011;61690;51.824;6.306;2022-08-11T14:32:21;8.30;;;2.60;;
73454;SDS011;61690;51.824;6.306;2022-08-11T14:34:48;5.38;;;2.70;;
73454;SDS011;61690;51.824;6.306;2022-08-11T14:37:18;6.30;;;2.60;;
73454;SDS011;61690;51.824;6.306;2022-08-11T14:40:06;5.13;;;2.63;;
73454;SDS011;61690;51.824;6.306;2022-08-11T14:42:52;5.57;;;2.50;;
73454;SDS011;61690;51.824;6.306;2022-08-11T14:45:36;6.10;;;2.40;;
73454;SDS011;61690;51.824;6.306;2022-08-11T14:48:21;6.15;;;2.63;;
73454;SDS011;61690;51.824;6.306;2022-08-11T14:50:47;6.05;;;2.60;;
73454;SDS011;61690;51.824;6.306;2022-08-11T14:53:13;6.27;;;2.30;;
73454;SDS011;61690;51.824;6.306;2022-08-11T14:55:40;5.82;;;2.40;;
73454;SDS011;61690;51.824;6.306;2022-08-11T14:58:27;6.10;;;2.50;;
73454;SDS011;61690;51.824;6.306;2022-08-11T15:00:57;6.83;;;2.40;;
73454;SDS011;61690;51.824;6.306;2022-08-11T15:03:26;5.72;;;2.35;;
73454;SDS011;61690;51.824;6.306;2022-08-11T15:06:01;5.43;;;2.25;;
73454;SDS011;61690;51.824;6.306;2022-08-11T15:08:29;6.15;;;2.50;;
73454;SDS011;61690;51.824;6.306;2022-08-11T15:11:16;8.10;;;2.65;;
73454;SDS011;61690;51.824;6.306;2022-08-11T15:14:03;8.07;;;2.60;;
73454;SDS011;61690;51.824;6.306;2022-08-11T15:16:30;7.90;;;2.60;;
73454;SDS011;61690;51.824;6.306;2022-08-11T15:19:15;4.85;;;2.20;;
73454;SDS011;61690;51.824;6.306;2022-08-11T15:21:45;6.95;;;2.47;;
73454;SDS011;61690;51.824;6.306;2022-08-11T15:24:29;6.18;;;2.60;;
73454;SDS011;61690;51.824;6.306;2022-08-11T15:26:55;9.00;;;2.60;;
73454;SDS011;61690;51.824;6.306;2022-08-11T15:29:41;6.00;;;2.60;;
73454;SDS011;61690;51.824;6.306;2022-08-11T15:32:26;6.10;;;2.50;;
73454;SDS011;61690;51.824;6.306;2022-08-11T15:35:13;5.30;;;2.60;;
73454;SDS011;61690;51.824;6.306;2022-08-11T15:38:00;5.43;;;2.70;;
73454;SDS011;61690;51.824;6.306;2022-08-11T15:40:28;5.53;;;2.80;;
73454;SDS011;61690;51.824;6.306;2022-08-11T15:43:18;5.78;;;2.78;;
73454;SDS011;61690;51.824;6.306;2022-08-11T15:46:06;5.90;;;2.87;;
73454;SDS011;61690;51.824;6.306;2022-08-11T15:48:46;5.28;;;2.70;;
73454;SDS011;61690;51.824;6.306;2022-08-11T15:51:27;5.70;;;2.90;;
73454;SDS011;61690;51.824;6.306;2022-08-11T15:54:03;4.75;;;2.70;;
73454;SDS011;61690;51.824;6.306;2022-08-11T15:56:33;7.32;;;2.60;;
73454;SDS011;61690;51.824;6.306;2022-08-11T15:59:01;5.67;;;3.10;;
73454;SDS011;61690;51.824;6.306;2022-08-11T16:01:47;5.50;;;3.03;;
73454;SDS011;61690;51.824;6.306;2022-08-11T16:04:34;6.22;;;2.55;;
73454;SDS011;61690;51.824;6.306;2022-08-11T16:07:04;5.72;;;2.72;;
73454;SDS011;61690;51.824;6.306;2022-08-11T16:12:21;5.60;;;2.60;;
73454;SDS011;61690;51.824;6.306;2022-08-11T16:14:53;6.20;;;3.10;;
73454;SDS011;61690;51.824;6.306;2022-08-11T16:17:43;5.07;;;2.90;;
73454;SDS011;61690;51.824;6.306;2022-08-11T16:20:10;4.70;;;2.90;;
73454;SDS011;61690;51.824;6.306;2022-08-11T16:22:38;6.97;;;3.10;;
73454;SDS011;61690;51.824;6.306;2022-08-11T16:25:16;5.57;;;3.00;;
73454;SDS011;61690;51.824;6.306;2022-08-11T16:27:48;5.90;;;2.70;;
73454;SDS011;61690;51.824;6.306;2022-08-11T16:30:17;4.85;;;2.75;;
73454;SDS011;61690;51.824;6.306;2022-08-11T16:32:43;7.33;;;2.80;;
73454;SDS011;61690;51.824;6.306;2022-08-11T16:35:17;5.47;;;2.67;;
73454;SDS011;61690;51.824;6.306;2022-08-11T16:38:03;5.57;;;2.97;;
73454;SDS011;61690;51.824;6.306;2022-08-11T16:40:50;6.13;;;2.83;;
73454;SDS011;61690;51.824;6.306;2022-08-11T16:43:18;5.03;;;2.60;;
73454;SDS011;61690;51.824;6.306;2022-08-11T16:46:04;6.10;;;2.80;;
73454;SDS011;61690;51.824;6.306;2022-08-11T16:48:50;5.22;;;2.75;;
73454;SDS011;61690;51.824;6.306;2022-08-11T16:51:17;5.18;;;2.70;;
73454;SDS011;61690;51.824;6.306;2022-08-11T16:53:44;5.68;;;2.90;;
73454;SDS011;61690;51.824;6.306;2022-08-11T16:56:11;4.97;;;2.90;;
73454;SDS011;61690;51.824;6.306;2022-08-11T16:58:42;4.40;;;2.40;;
73454;SDS011;61690;51.824;6.306;2022-08-11T17:01:31;6.10;;;3.08;;
73454;SDS011;61690;51.824;6.306;2022-08-11T17:03:59;4.88;;;2.85;;
73454;SDS011;61690;51.824;6.306;2022-08-11T17:06:48;4.65;;;2.80;;
73454;SDS011;61690;51.824;6.306;2022-08-11T17:09:33;5.80;;;2.80;;
73454;SDS011;61690;51.824;6.306;2022-08-11T17:12:19;5.30;;;2.70;;
73454;SDS011;61690;51.824;6.306;2022-08-11T17:15:09;7.30;;;2.85;;
73454;SDS011;61690;51.824;6.306;2022-08-11T17:17:59;5.00;;;2.78;;
73454;SDS011;61690;51.824;6.306;2022-08-11T17:20:27;5.00;;;2.67;;
73454;SDS011;61690;51.824;6.306;2022-08-11T17:22:55;6.88;;;2.63;;
73454;SDS011;61690;51.824;6.306;2022-08-11T17:25:41;7.17;;;2.60;;
73454;SDS011;61690;51.824;6.306;2022-08-11T17:28:07;6.03;;;2.90;;
73454;SDS011;61690;51.824;6.306;2022-08-11T17:30:35;5.53;;;2.60;;
73454;SDS011;61690;51.824;6.306;2022-08-11T17:33:21;5.15;;;2.65;;
73454;SDS011;61690;51.824;6.306;2022-08-11T17:36:06;7.13;;;2.72;;
73454;SDS011;61690;51.824;6.306;2022-08-11T17:38:34;5.27;;;2.80;;
73454;SDS011;61690;51.824;6.306;2022-08-11T17:41:02;6.63;;;2.90;;
73454;SDS011;61690;51.824;6.306;2022-08-11T17:43:47;5.90;;;2.55;;
73454;SDS011;61690;51.824;6.306;2022-08-11T17:46:32;5.38;;;2.53;;
73454;SDS011;61690;51.824;6.306;2022-08-11T17:49:17;5.78;;;2.90;;
73454;SDS011;61690;51.824;6.306;2022-08-11T17:51:44;5.53;;;2.90;;
73454;SDS011;61690;51.824;6.306;2022-08-11T17:54:30;6.20;;;2.90;;
73454;SDS011;61690;51.824;6.306;2022-08-11T17:57:16;7.20;;;3.03;;
73454;SDS011;61690;51.824;6.306;2022-08-11T18:00:03;6.07;;;2.80;;
73454;SDS011;61690;51.824;6.306;2022-08-11T18:02:35;5.72;;;2.70;;
73454;SDS011;61690;51.824;6.306;2022-08-11T18:05:23;5.57;;;2.80;;
73454;SDS011;61690;51.824;6.306;2022-08-11T18:07:52;5.50;;;3.00;;
73454;SDS011;61690;51.824;6.306;2022-08-11T18:10:38;5.93;;;3.00;;
73454;SDS011;61690;51.824;6.306;2022-08-11T18:13:23;5.97;;;2.90;;
73454;SDS011;61690;51.824;6.306;2022-08-11T18:16:09;5.95;;;2.92;;
73454;SDS011;61690;51.824;6.306;2022-08-11T18:18:54;7.23;;;3.00;;
73454;SDS011;61690;51.824;6.306;2022-08-11T18:21:42;7.35;;;2.80;;
73454;SDS011;61690;51.824;6.306;2022-08-11T18:24:28;8.77;;;2.75;;
73454;SDS011;61690;51.824;6.306;2022-08-11T18:27:18;4.95;;;2.90;;
73454;SDS011;61690;51.824;6.306;2022-08-11T18:30:05;7.80;;;3.05;;
73454;SDS011;61690;51.824;6.306;2022-08-11T18:32:50;6.10;;;2.60;;
73454;SDS011;61690;51.824;6.306;2022-08-11T18:35:37;8.68;;;3.38;;
73454;SDS011;61690;51.824;6.306;2022-08-11T18:38:23;6.28;;;3.10;;
73454;SDS011;61690;51.824;6.306;2022-08-11T18:41:11;6.85;;;3.10;;
73454;SDS011;61690;51.824;6.306;2022-08-11T18:43:58;6.28;;;2.88;;
73454;SDS011;61690;51.824;6.306;2022-08-11T18:46:45;5.10;;;2.90;;
73454;SDS011;61690;51.824;6.306;2022-08-11T18:49:34;7.82;;;3.00;;
73454;SDS011;61690;51.824;6.306;2022-08-11T18:52:20;6.65;;;2.80;;
73454;SDS011;61690;51.824;6.306;2022-08-11T18:55:07;5.85;;;3.10;;
73454;SDS011;61690;51.824;6.306;2022-08-11T18:57:53;4.90;;;2.88;;
73454;SDS011;61690;51.824;6.306;2022-08-11T19:00:38;5.07;;;3.00;;
73454;SDS011;61690;51.824;6.306;2022-08-11T19:03:24;7.30;;;2.90;;
73454;SDS011;61690;51.824;6.306;2022-08-11T19:06:11;6.78;;;3.10;;
73454;SDS011;61690;51.824;6.306;2022-08-11T19:08:58;6.40;;;3.10;;
73454;SDS011;61690;51.824;6.306;2022-08-11T19:11:44;5.80;;;3.20;;
73454;SDS011;61690;51.824;6.306;2022-08-11T19:14:30;7.03;;;3.30;;
73454;SDS011;61690;51.824;6.306;2022-08-11T19:17:17;8.38;;;3.30;;
73454;SDS011;61690;51.824;6.306;2022-08-11T19:20:05;5.95;;;3.08;;
73454;SDS011;61690;51.824;6.306;2022-08-11T19:22:59;6.78;;;3.10;;
73454;SDS011;61690;51.824;6.306;2022-08-11T19:25:45;5.78;;;3.13;;
73454;SDS011;61690;51.824;6.306;2022-08-11T19:28:30;7.10;;;3.40;;
73454;SDS011;61690;51.824;6.306;2022-08-11T19:31:17;5.38;;;3.10;;
73454;SDS011;61690;51.824;6.306;2022-08-11T19:34:02;7.05;;;3.22;;
73454;SDS011;61690;51.824;6.306;2022-08-11T19:36:48;7.45;;;3.50;;
73454;SDS011;61690;51.824;6.306;2022-08-11T19:39:34;5.82;;;3.33;;